createdAt,value
2023-04-19T00:00:09.563Z,6.60
2023-04-19T00:02:41.590Z,6.90
2023-04-19T00:05:12.147Z,5.20
2023-04-19T00:07:40.582Z,4.00
2023-04-19T00:10:09.625Z,5.40
2023-04-19T00:12:38.777Z,6.10
2023-04-19T00:15:07.671Z,6.80
2023-04-19T00:17:36.489Z,4.30
2023-04-19T00:20:06.102Z,7.60
2023-04-19T00:22:35.096Z,5.70
2023-04-19T00:25:03.226Z,5.50
2023-04-19T00:27:31.540Z,4.80
2023-04-19T00:30:01.866Z,7.40
2023-04-19T00:32:30.530Z,7.80
2023-04-19T00:34:59.147Z,5.40
2023-04-19T00:37:27.327Z,7.20
2023-04-19T00:39:55.477Z,7.60
2023-04-19T00:42:23.688Z,6.20
2023-04-19T00:44:51.767Z,6.70
2023-04-19T00:47:19.948Z,7.40
2023-04-19T00:49:48.331Z,5.90
2023-04-19T00:52:17.733Z,6.90
2023-04-19T00:54:46.120Z,5.10
2023-04-19T00:57:15.760Z,5.10
2023-04-19T00:59:44.009Z,4.70
2023-04-19T01:02:13.005Z,7.50
2023-04-19T01:04:41.287Z,5.40
2023-04-19T01:07:09.499Z,8.80
2023-04-19T01:09:41.438Z,7.60
2023-04-19T01:12:09.609Z,7.40
2023-04-19T01:14:38.407Z,4.60
2023-04-19T01:17:07.721Z,7.50
2023-04-19T01:19:36.931Z,8.60
2023-04-19T01:22:06.641Z,6.30
2023-04-19T01:24:34.899Z,7.30
2023-04-19T01:27:03.731Z,4.10
2023-04-19T01:29:31.993Z,5.10
2023-04-19T01:32:00.060Z,5.80
2023-04-19T01:34:28.950Z,3.50
2023-04-19T01:36:58.176Z,5.40
2023-04-19T01:39:26.641Z,7.40
2023-04-19T01:41:54.911Z,7.20
2023-04-19T01:44:23.211Z,5.00
2023-04-19T01:46:51.310Z,6.20
2023-04-19T01:49:19.494Z,4.70
2023-04-19T01:51:47.773Z,3.60
2023-04-19T01:54:16.105Z,7.00
2023-04-19T01:56:44.514Z,5.90
2023-04-19T01:59:12.581Z,4.70
2023-04-19T02:01:41.355Z,8.20
2023-04-19T02:04:10.709Z,8.00
2023-04-19T02:06:38.799Z,8.20
2023-04-19T02:09:07.041Z,5.90
2023-04-19T02:11:35.535Z,5.90
2023-04-19T02:14:03.827Z,4.90
2023-04-19T02:16:33.813Z,6.40
2023-04-19T02:19:03.620Z,7.00
2023-04-19T02:21:32.326Z,4.80
2023-04-19T02:24:01.287Z,7.00
2023-04-19T02:26:29.656Z,6.10
2023-04-19T02:28:57.713Z,6.40
2023-04-19T02:31:25.985Z,7.00
2023-04-19T02:33:54.365Z,3.60
2023-04-19T02:36:22.677Z,5.80
2023-04-19T02:38:53.174Z,6.00
2023-04-19T02:41:21.772Z,5.60
2023-04-19T02:43:49.963Z,6.80
2023-04-19T02:46:18.142Z,6.60
2023-04-19T02:48:46.549Z,3.50
2023-04-19T02:51:17.907Z,9.00
2023-04-19T02:53:45.996Z,3.80
2023-04-19T02:56:14.116Z,5.80
2023-04-19T02:58:42.230Z,7.50
2023-04-19T03:01:10.444Z,6.50
2023-04-19T03:03:38.875Z,6.20
2023-04-19T03:06:07.241Z,4.90
2023-04-19T03:08:36.451Z,8.20
2023-04-19T03:11:05.511Z,7.60
2023-04-19T03:13:33.965Z,6.30
2023-04-19T03:16:02.119Z,6.40
2023-04-19T03:18:32.034Z,6.20
2023-04-19T03:21:01.376Z,6.20
2023-04-19T03:23:31.544Z,5.50
2023-04-19T03:26:01.336Z,6.20
2023-04-19T03:28:39.888Z,5.40
2023-04-19T03:31:30.991Z,8.50
2023-04-19T03:33:59.701Z,6.30
2023-04-19T03:36:31.225Z,6.70
2023-04-19T03:38:59.242Z,5.90
2023-04-19T03:41:28.169Z,7.90
2023-04-19T03:44:22.167Z,7.20
2023-04-19T03:46:50.436Z,7.20
2023-04-19T03:49:22.298Z,8.30
2023-04-19T03:51:55.800Z,8.30
2023-04-19T03:54:23.975Z,9.20
2023-04-19T03:56:52.042Z,7.70
2023-04-19T03:59:20.129Z,6.10
2023-04-19T04:01:48.500Z,7.50
2023-04-19T04:04:17.137Z,10.30
2023-04-19T04:06:45.925Z,7.10
2023-04-19T04:09:14.700Z,4.90
2023-04-19T04:11:42.912Z,6.00
2023-04-19T04:14:11.564Z,7.00
2023-04-19T04:16:40.155Z,7.80
2023-04-19T04:19:08.952Z,5.60
2023-04-19T04:21:39.369Z,9.30
2023-04-19T04:24:08.125Z,5.80
2023-04-19T04:26:58.089Z,7.00
2023-04-19T04:29:29.754Z,6.90
2023-04-19T04:32:00.073Z,5.40
2023-04-19T04:34:33.243Z,4.80
2023-04-19T04:37:09.083Z,5.40
2023-04-19T04:39:40.018Z,6.50
2023-04-19T04:42:09.176Z,6.00
2023-04-19T04:44:37.475Z,6.60
2023-04-19T04:47:05.780Z,4.30
2023-04-19T04:49:38.700Z,7.70
2023-04-19T04:52:08.827Z,6.60
2023-04-19T04:54:42.456Z,7.70
2023-04-19T04:57:18.787Z,7.00
2023-04-19T04:59:48.507Z,6.60
2023-04-19T05:02:21.108Z,7.10
2023-04-19T05:04:49.837Z,8.60
2023-04-19T05:07:17.918Z,5.10
2023-04-19T05:09:46.506Z,5.50
2023-04-19T05:12:15.757Z,8.90
2023-04-19T05:14:43.961Z,7.10
2023-04-19T05:17:12.129Z,11.50
2023-04-19T05:19:40.298Z,6.00
2023-04-19T05:22:08.580Z,6.80
2023-04-19T05:24:38.009Z,9.00
2023-04-19T05:27:06.918Z,7.10
2023-04-19T05:29:35.078Z,8.40
2023-04-19T05:32:03.176Z,4.90
2023-04-19T05:34:34.953Z,7.80
2023-04-19T05:37:04.034Z,9.30
2023-04-19T05:39:32.268Z,8.80
2023-04-19T05:42:00.719Z,8.60
2023-04-19T05:44:30.257Z,14.50
2023-04-19T05:46:58.390Z,8.00
2023-04-19T05:49:51.417Z,7.80
2023-04-19T05:52:31.894Z,10.00
2023-04-19T05:55:01.825Z,8.20
2023-04-19T05:57:31.078Z,8.60
2023-04-19T06:02:41.755Z,5.60
2023-04-19T06:05:12.602Z,7.20
2023-04-19T06:07:47.263Z,13.70
2023-04-19T06:10:23.851Z,8.50
2023-04-19T06:12:52.089Z,9.70
2023-04-19T06:15:21.041Z,9.80
2023-04-19T06:17:49.432Z,15.40
2023-04-19T06:20:17.613Z,7.10
2023-04-19T06:22:46.032Z,8.20
2023-04-19T06:25:15.235Z,8.20
2023-04-19T06:27:43.420Z,5.30
2023-04-19T06:30:11.703Z,7.40
2023-04-19T06:32:39.996Z,8.60
2023-04-19T06:35:10.942Z,13.40
2023-04-19T06:37:39.315Z,10.30
2023-04-19T06:40:08.739Z,7.90
2023-04-19T06:42:38.041Z,17.50
2023-04-19T06:45:08.756Z,7.10
2023-04-19T06:47:37.374Z,12.00
2023-04-19T06:50:06.587Z,9.10
2023-04-19T06:52:34.993Z,6.20
2023-04-19T06:55:03.152Z,11.50
2023-04-19T06:57:31.368Z,9.00
2023-04-19T06:59:59.674Z,7.20
2023-04-19T07:02:28.488Z,8.40
2023-04-19T07:04:57.159Z,13.80
2023-04-19T07:07:25.444Z,9.70
2023-04-19T07:09:53.514Z,14.10
2023-04-19T07:12:21.832Z,6.30
2023-04-19T07:14:49.871Z,10.00
2023-04-19T07:17:18.878Z,9.10
2023-04-19T07:19:49.988Z,10.20
2023-04-19T07:22:18.198Z,10.20
2023-04-19T07:24:46.510Z,11.40
2023-04-19T07:27:14.976Z,13.40
2023-04-19T07:29:43.203Z,17.50
2023-04-19T07:32:12.493Z,13.40
2023-04-19T07:34:41.546Z,10.40
2023-04-19T07:37:09.726Z,11.00
2023-04-19T07:39:38.158Z,10.00
2023-04-19T07:42:06.394Z,11.20
2023-04-19T07:44:34.575Z,12.40
2023-04-19T07:47:05.302Z,13.10
2023-04-19T07:49:34.559Z,10.40
2023-04-19T07:52:03.238Z,12.70
2023-04-19T07:54:32.412Z,10.60
2023-04-19T07:57:00.686Z,13.70
2023-04-19T07:59:29.486Z,9.30
2023-04-19T08:01:57.848Z,14.70
2023-04-19T08:04:26.611Z,19.70
2023-04-19T08:06:55.453Z,17.60
2023-04-19T08:09:23.771Z,20.10
2023-04-19T08:11:53.719Z,16.70
2023-04-19T08:14:34.839Z,19.50
2023-04-19T08:17:22.842Z,14.10
2023-04-19T08:22:22.900Z,20.50
2023-04-19T08:24:54.086Z,14.00
2023-04-19T08:27:22.365Z,15.00
2023-04-19T08:29:50.921Z,12.70
2023-04-19T08:32:19.312Z,18.10
2023-04-19T08:34:47.801Z,15.50
2023-04-19T08:37:16.109Z,17.70
2023-04-19T08:39:44.460Z,12.40
2023-04-19T08:42:28.827Z,12.80
2023-04-19T08:45:25.969Z,17.90
2023-04-19T08:48:00.634Z,19.70
2023-04-19T08:50:35.946Z,18.50
2023-04-19T08:55:59.047Z,24.20
2023-04-19T09:01:05.150Z,13.20
2023-04-19T09:03:44.081Z,17.70
2023-04-19T09:06:16.159Z,15.80
2023-04-19T09:08:44.433Z,16.90
2023-04-19T09:11:12.782Z,13.80
2023-04-19T09:13:42.730Z,18.10
2023-04-19T09:16:24.568Z,17.00
2023-04-19T09:19:08.221Z,23.00
2023-04-19T09:21:44.013Z,19.20
2023-04-19T09:24:12.399Z,25.30
2023-04-19T09:26:40.489Z,23.00
2023-04-19T09:29:08.955Z,24.60
2023-04-19T09:31:50.500Z,23.50
2023-04-19T09:34:19.950Z,18.60
2023-04-19T09:36:52.491Z,18.00
2023-04-19T09:39:32.681Z,15.80
2023-04-19T09:42:02.294Z,18.10
2023-04-19T09:47:01.889Z,19.20
2023-04-19T09:49:46.011Z,20.80
2023-04-19T09:52:17.725Z,28.50
2023-04-19T09:54:46.272Z,17.60
2023-04-19T09:57:15.004Z,23.10
2023-04-19T09:59:43.063Z,22.00
2023-04-19T10:02:11.503Z,18.30
2023-04-19T10:04:59.642Z,42.80
2023-04-19T10:07:30.823Z,34.70
2023-04-19T10:12:52.386Z,23.30
2023-04-19T10:15:22.314Z,28.30
2023-04-19T10:17:50.499Z,26.40
2023-04-19T10:20:47.138Z,29.80
2023-04-19T10:23:15.264Z,33.70
2023-04-19T10:25:46.844Z,20.30
2023-04-19T10:28:18.201Z,20.40
2023-04-19T10:30:59.105Z,29.50
2023-04-19T10:33:32.284Z,22.20
2023-04-19T10:36:00.849Z,24.20
2023-04-19T10:41:59.682Z,27.00
2023-04-19T10:44:28.020Z,18.50
2023-04-19T10:46:56.186Z,30.60
2023-04-19T10:49:24.387Z,32.10
2023-04-19T10:51:55.035Z,30.20
2023-04-19T10:54:37.778Z,28.80
2023-04-19T10:57:06.937Z,29.90
2023-04-19T10:59:35.814Z,25.70
2023-04-19T11:02:25.284Z,23.60
2023-04-19T11:04:54.118Z,20.30
2023-04-19T11:07:22.588Z,24.40
2023-04-19T11:09:52.019Z,21.60
2023-04-19T11:12:21.486Z,28.20
2023-04-19T11:14:54.270Z,24.50
2023-04-19T11:17:27.915Z,21.80
2023-04-19T11:20:00.475Z,36.00
2023-04-19T11:22:36.354Z,34.70
2023-04-19T11:25:20.800Z,23.70
2023-04-19T11:27:53.255Z,39.20
2023-04-19T11:30:23.253Z,33.90
2023-04-19T11:32:55.950Z,24.40
2023-04-19T11:35:25.233Z,27.00
2023-04-19T11:37:54.108Z,37.70
2023-04-19T11:40:23.462Z,36.80
2023-04-19T11:42:56.140Z,44.80
2023-04-19T11:45:35.510Z,20.50
2023-04-19T11:48:05.955Z,19.70
2023-04-19T11:50:42.253Z,28.90
2023-04-19T11:53:16.861Z,26.60
2023-04-19T11:58:29.164Z,24.20
2023-04-19T12:01:08.954Z,22.50
2023-04-19T12:03:56.810Z,25.00
2023-04-19T12:06:27.115Z,28.90
2023-04-19T12:08:56.161Z,19.50
2023-04-19T12:11:26.618Z,38.00
2023-04-19T12:14:15.734Z,30.90
2023-04-19T12:16:45.267Z,37.60
2023-04-19T12:19:14.760Z,22.00
2023-04-19T12:21:43.498Z,23.80
2023-04-19T12:24:12.487Z,28.80
2023-04-19T12:27:04.329Z,23.20
2023-04-19T12:29:35.367Z,26.90
2023-04-19T12:32:03.872Z,19.90
2023-04-19T12:34:32.348Z,29.70
2023-04-19T12:37:01.138Z,22.40
2023-04-19T12:39:32.787Z,27.30
2023-04-19T12:42:01.423Z,36.60
2023-04-19T12:44:29.704Z,32.20
2023-04-19T12:46:58.163Z,38.70
2023-04-19T12:49:26.540Z,38.70
2023-04-19T12:51:57.014Z,49.60
2023-04-19T12:54:25.541Z,34.20
2023-04-19T12:56:54.230Z,37.60
2023-04-19T12:59:22.501Z,31.90
2023-04-19T13:01:50.717Z,38.80
2023-04-19T13:04:19.414Z,34.90
2023-04-19T13:06:48.271Z,38.80
2023-04-19T13:09:16.449Z,46.40
2023-04-19T13:11:44.735Z,35.80
2023-04-19T13:14:13.104Z,43.70
2023-04-19T13:16:41.709Z,43.50
2023-04-19T13:19:09.780Z,27.00
2023-04-19T13:21:38.062Z,29.00
2023-04-19T13:24:08.822Z,33.70
2023-04-19T13:26:38.552Z,33.20
2023-04-19T13:29:08.570Z,43.60
2023-04-19T13:31:37.271Z,32.50
2023-04-19T13:34:08.171Z,48.30
2023-04-19T13:36:37.883Z,51.50
2023-04-19T13:39:08.159Z,35.30
2023-04-19T13:41:36.947Z,29.60
2023-04-19T13:44:05.190Z,41.00
2023-04-19T13:46:34.459Z,32.10
2023-04-19T13:49:02.551Z,34.00
2023-04-19T13:51:46.401Z,32.70
2023-04-19T13:54:18.806Z,40.00
2023-04-19T13:56:49.770Z,37.80
2023-04-19T13:59:19.699Z,23.80
2023-04-19T14:01:47.955Z,34.70
2023-04-19T14:04:16.355Z,36.00
2023-04-19T14:06:45.417Z,30.70
2023-04-19T14:09:13.917Z,33.70
2023-04-19T14:11:42.213Z,46.60
2023-04-19T14:14:10.649Z,35.30
2023-04-19T14:16:38.753Z,36.20
2023-04-19T14:19:10.710Z,29.40
2023-04-19T14:21:41.313Z,21.40
2023-04-19T14:24:09.368Z,28.30
2023-04-19T14:26:40.722Z,24.90
2023-04-19T14:29:08.947Z,28.70
2023-04-19T14:31:37.060Z,38.60
2023-04-19T14:34:05.136Z,32.80
2023-04-19T14:36:33.219Z,22.60
2023-04-19T14:39:01.547Z,39.00
2023-04-19T14:41:30.419Z,28.60
2023-04-19T14:43:58.818Z,37.60
2023-04-19T14:46:26.994Z,30.20
2023-04-19T14:48:55.059Z,20.00
2023-04-19T14:51:23.102Z,25.40
2023-04-19T14:53:51.140Z,24.80
2023-04-19T14:56:19.193Z,21.60
2023-04-19T14:58:48.104Z,26.40
2023-04-19T15:01:16.449Z,25.10
2023-04-19T15:03:46.598Z,23.80
2023-04-19T15:06:19.417Z,20.90
2023-04-19T15:08:47.861Z,17.70
2023-04-19T15:11:16.322Z,18.40
2023-04-19T15:13:44.501Z,16.70
2023-04-19T15:16:12.610Z,24.80
2023-04-19T15:18:41.212Z,23.30
2023-04-19T15:21:09.482Z,24.80
2023-04-19T15:23:37.587Z,17.80
2023-04-19T15:26:05.649Z,22.60
2023-04-19T15:28:36.219Z,18.40
2023-04-19T15:31:05.630Z,27.20
2023-04-19T15:33:35.602Z,23.20
2023-04-19T15:36:04.398Z,23.10
2023-04-19T15:38:32.990Z,26.10
2023-04-19T15:41:03.724Z,16.90
2023-04-19T15:43:32.006Z,23.90
2023-04-19T15:46:00.502Z,16.20
2023-04-19T15:48:29.284Z,28.90
2023-04-19T15:50:57.369Z,14.90
2023-04-19T15:53:25.549Z,26.40
2023-04-19T15:55:55.822Z,23.30
2023-04-19T15:58:24.422Z,23.50
2023-04-19T16:00:52.660Z,17.40
2023-04-19T16:03:21.146Z,29.30
2023-04-19T16:05:51.849Z,24.40
2023-04-19T16:08:20.133Z,22.60
2023-04-19T16:10:49.062Z,19.10
2023-04-19T16:13:17.654Z,21.50
2023-04-19T16:15:45.898Z,25.80
2023-04-19T16:18:14.314Z,17.90
2023-04-19T16:20:42.468Z,21.30
2023-04-19T16:23:14.849Z,21.70
2023-04-19T16:25:42.987Z,22.80
2023-04-19T16:28:11.305Z,33.00
2023-04-19T16:30:42.630Z,26.50
2023-04-19T16:33:11.485Z,22.60
2023-04-19T16:35:39.763Z,18.20
2023-04-19T16:38:14.835Z,19.20
2023-04-19T16:40:44.616Z,26.10
2023-04-19T16:43:12.695Z,24.30
2023-04-19T16:45:44.729Z,19.10
2023-04-19T16:48:12.850Z,30.20
2023-04-19T16:50:41.250Z,25.80
2023-04-19T16:53:09.343Z,20.30
2023-04-19T16:55:40.775Z,23.00
2023-04-19T16:58:08.851Z,18.60
2023-04-19T17:00:37.019Z,25.60
2023-04-19T17:03:08.164Z,22.10
2023-04-19T17:05:37.011Z,17.00
2023-04-19T17:08:05.412Z,17.70
2023-04-19T17:10:33.586Z,28.30
2023-04-19T17:13:01.640Z,26.10
2023-04-19T17:15:29.876Z,22.40
2023-04-19T17:17:57.989Z,25.20
2023-04-19T17:20:26.157Z,23.00
2023-04-19T17:22:54.183Z,24.20
2023-04-19T17:25:22.537Z,25.50
2023-04-19T17:27:51.125Z,33.60
2023-04-19T17:30:19.231Z,22.80
2023-04-19T17:32:47.411Z,19.50
2023-04-19T17:35:15.527Z,12.70
2023-04-19T17:37:43.830Z,15.80
2023-04-19T17:40:12.363Z,14.20
2023-04-19T17:42:43.179Z,16.60
2023-04-19T17:45:11.698Z,18.00
2023-04-19T17:47:40.038Z,18.70
2023-04-19T17:50:12.446Z,10.80
2023-04-19T17:52:43.155Z,16.20
2023-04-19T17:55:11.236Z,14.40
2023-04-19T17:57:40.200Z,14.10
2023-04-19T18:00:10.783Z,10.30
2023-04-19T18:02:40.897Z,12.10
2023-04-19T18:05:09.556Z,13.10
2023-04-19T18:07:37.963Z,10.20
2023-04-19T18:10:06.760Z,11.70
2023-04-19T18:12:36.734Z,11.90
2023-04-19T18:15:06.655Z,11.70
2023-04-19T18:17:35.922Z,6.00
2023-04-19T18:20:05.839Z,17.80
2023-04-19T18:22:34.110Z,15.60
2023-04-19T18:25:02.182Z,11.80
2023-04-19T18:27:32.454Z,12.80
2023-04-19T18:30:04.037Z,12.00
2023-04-19T18:32:33.690Z,8.30
2023-04-19T18:35:04.537Z,16.40
2023-04-19T18:37:46.904Z,15.70
2023-04-19T18:40:24.783Z,11.40
2023-04-19T18:42:52.876Z,11.40
2023-04-19T18:45:23.777Z,11.00
2023-04-19T18:47:55.359Z,16.00
2023-04-19T18:50:23.736Z,12.80
2023-04-19T18:52:51.928Z,15.00
2023-04-19T18:55:20.061Z,10.50
2023-04-19T18:57:48.146Z,19.60
2023-04-19T19:00:17.365Z,22.40
2023-04-19T19:02:46.266Z,18.10
2023-04-19T19:05:16.182Z,14.00
2023-04-19T19:07:45.585Z,13.10
2023-04-19T19:10:19.104Z,13.40
2023-04-19T19:12:50.442Z,15.40
2023-04-19T19:15:18.953Z,16.10
2023-04-19T19:17:49.911Z,19.30
2023-04-19T19:20:19.639Z,18.70
2023-04-19T19:22:48.543Z,16.40
2023-04-19T19:25:16.927Z,15.50
2023-04-19T19:28:04.961Z,13.70
2023-04-19T19:30:34.808Z,13.10
2023-04-19T19:33:05.053Z,13.80
2023-04-19T19:35:33.598Z,17.10
2023-04-19T19:38:01.795Z,14.50
2023-04-19T19:40:32.441Z,25.30
2023-04-19T19:43:01.257Z,15.80
2023-04-19T19:45:30.864Z,17.70
2023-04-19T19:48:00.012Z,14.20
2023-04-19T19:53:01.724Z,17.60
2023-04-19T19:55:30.474Z,19.70
2023-04-19T20:00:44.054Z,14.90
2023-04-19T20:03:13.536Z,27.30
2023-04-19T20:05:41.840Z,22.40
2023-04-19T20:08:11.950Z,21.40
2023-04-19T20:10:42.255Z,22.20
2023-04-19T20:13:13.254Z,21.40
2023-04-19T20:15:41.832Z,14.60
2023-04-19T20:18:09.828Z,14.30
2023-04-19T20:20:38.262Z,20.00
2023-04-19T20:23:06.422Z,17.50
2023-04-19T20:25:35.113Z,20.10
2023-04-19T20:28:03.613Z,17.60
2023-04-19T20:30:31.666Z,20.10
2023-04-19T20:32:59.885Z,18.60
2023-04-19T20:35:28.566Z,20.70
2023-04-19T20:38:02.837Z,34.70
2023-04-19T20:40:32.363Z,30.30
2023-04-19T20:43:01.093Z,24.50
2023-04-19T20:45:29.995Z,21.60
2023-04-19T20:47:58.823Z,20.00
2023-04-19T20:50:27.129Z,22.80
2023-04-19T20:52:56.790Z,30.80
2023-04-19T20:55:25.157Z,25.20
2023-04-19T20:57:53.525Z,15.30
2023-04-19T21:00:21.653Z,37.40
2023-04-19T21:02:50.081Z,24.50
2023-04-19T21:05:18.388Z,22.80
2023-04-19T21:07:46.846Z,18.50
2023-04-19T21:10:16.988Z,20.40
2023-04-19T21:12:45.349Z,29.80
2023-04-19T21:15:13.527Z,20.70
2023-04-19T21:17:41.888Z,21.70
2023-04-19T21:20:14.618Z,22.20
2023-04-19T21:22:43.530Z,16.50
2023-04-19T21:25:12.656Z,16.20
2023-04-19T21:27:41.691Z,19.20
2023-04-19T21:30:10.707Z,21.50
2023-04-19T21:32:38.960Z,29.30
2023-04-19T21:35:08.443Z,24.60
2023-04-19T21:37:37.100Z,32.60
2023-04-19T21:40:06.386Z,33.90
2023-04-19T21:42:35.725Z,22.20
2023-04-19T21:45:04.341Z,21.60
2023-04-19T21:47:32.893Z,26.70
2023-04-19T21:50:01.134Z,25.60
2023-04-19T21:52:29.845Z,23.50
2023-04-19T21:54:58.057Z,24.10
2023-04-19T21:57:27.192Z,21.80
2023-04-19T21:59:55.493Z,27.00
2023-04-19T22:02:23.985Z,22.70
2023-04-19T22:04:54.058Z,31.40
2023-04-19T22:07:24.128Z,32.50
2023-04-19T22:09:52.517Z,23.30
2023-04-19T22:12:20.852Z,20.50
2023-04-19T22:14:49.045Z,16.30
2023-04-19T22:17:18.813Z,24.20
2023-04-19T22:19:47.836Z,17.90
2023-04-19T22:22:15.905Z,24.50
2023-04-19T22:24:56.159Z,26.50
2023-04-19T22:27:25.842Z,23.20
2023-04-19T22:29:53.992Z,24.20
2023-04-19T22:32:22.282Z,25.00
2023-04-19T22:34:50.832Z,23.20
2023-04-19T22:37:18.967Z,22.10
2023-04-19T22:39:47.044Z,27.40
2023-04-19T22:42:15.088Z,22.30
2023-04-19T22:44:43.138Z,16.70
2023-04-19T22:47:12.010Z,22.00
2023-04-19T22:49:43.217Z,15.30
2023-04-19T22:52:11.967Z,18.70
2023-04-19T22:54:40.200Z,26.10
2023-04-19T22:57:08.383Z,27.50
2023-04-19T22:59:36.419Z,16.40
2023-04-19T23:02:04.539Z,25.70
2023-04-19T23:04:36.138Z,25.90
2023-04-19T23:07:04.511Z,17.90
2023-04-19T23:09:33.444Z,24.40
2023-04-19T23:12:01.494Z,29.20
2023-04-19T23:14:29.698Z,12.30
2023-04-19T23:16:57.775Z,24.80
2023-04-19T23:19:26.460Z,10.50
2023-04-19T23:21:54.514Z,26.50
2023-04-19T23:24:22.592Z,27.00
2023-04-19T23:26:50.828Z,19.00
2023-04-19T23:29:19.028Z,20.30
2023-04-19T23:31:47.306Z,23.20
2023-04-19T23:34:16.743Z,26.80
2023-04-19T23:36:44.905Z,23.10
2023-04-19T23:39:12.963Z,21.40
2023-04-19T23:41:40.969Z,22.50
2023-04-19T23:44:09.275Z,25.30
2023-04-19T23:46:37.373Z,18.70
2023-04-19T23:49:07.598Z,16.20
2023-04-19T23:51:36.502Z,22.50
2023-04-19T23:54:04.657Z,32.00
2023-04-19T23:56:33.522Z,28.20
2023-04-19T23:59:01.767Z,25.10
